Haramachi Maru — JBML — position and weather

sailwx.info

Track history (hours):
 
Tides and Currents Weather Stations Pressure Air Temp Water Temp Dewpoint Dewpoint Depression Visibility Wind Speed Wind Dir Waves Ship Positions

Haramachi Maru

Last reported at 2014-May-25 14:33 UTC. Time now 2014-Jul-28 12:25 UTC.
Position S 27°13' E 153°51'.
Warning: this ship's position is months out of date.

Length 239.8 m; beam 43 m.

Type: Cargo ship. MMSI: 431106000.

Date/timePositionNaut miles runAvg speedWind from/ knotsBaromVisibWave heightAir tempDewpointWater temp
2014-May-25 14:33S 27°13' E 153°51'10 9.9
2014-May-25 13:33S 27°23' E 153°51'1010.1
2014-May-25 12:33S 27°33' E 153°51'10 9.6
2014-May-25 11:34S 27°42' E 153°51'9 9.3
2014-May-25 10:33S 27°52' E 153°50'9 9.4
2014-May-25 09:33S 28°01' E 153°50'9 9.4
2014-May-25 08:34S 28°10' E 153°50'9 9.2
2014-May-25 07:34S 28°20' E 153°50'9 8.6
2014-May-25 06:33S 28°28' E 153°49'10 9.6
2014-May-25 05:33S 28°38' E 153°49'24310.9
2014-May-24 07:19S 32°33' E 152°39'810.7
2014-May-24 06:34S 32°40' E 152°34'1110.8
2014-May-24 05:33S 32°48' E 152°26'1111.0
2014-May-24 04:33S 32°54' E 152°15'1211.9
2014-May-24 03:34S 32°56' E 152°01'10 9.9
2014-May-24 02:33S 32°55' E 151°49'3 3.4
2014-May-24 01:33S 32°53' E 151°45'0 0.2
2014-May-24 00:18S 32°53' E 151°45'0 0.0
2014-May-23 23:30S 32°53' E 151°45'0 0.0
2014-May-23 22:24S 32°53' E 151°45'0 0.0
2014-May-23 20:30S 32°53' E 151°45'0 0.0
2014-May-23 19:18S 32°53' E 151°45'0 0.0
2014-May-23 18:30S 32°53' E 151°45'0 0.0
2014-May-23 17:30S 32°53' E 151°45'0 0.0
2014-May-23 16:30S 32°53' E 151°45'0 0.0
2014-May-23 15:30S 32°53' E 151°45'0 0.0
2014-May-23 14:30S 32°53' E 151°45'0 0.0
2014-May-23 13:30S 32°53' E 151°45'0 0.0
2014-May-23 12:30S 32°53' E 151°45'0 0.0
2014-May-23 11:30S 32°53' E 151°45'0 0.0
2014-May-23 10:30S 32°53' E 151°45'0 0.0
2014-May-23 09:33S 32°53' E 151°45'0 0.0
2014-May-23 08:33S 32°53' E 151°45'0 0.0
2014-May-23 07:33S 32°53' E 151°45'0 0.0
2014-May-23 06:30S 32°53' E 151°45'0 0.0
2014-May-23 05:30S 32°53' E 151°45'0 0.1
2014-May-23 04:33S 32°53' E 151°45'3 2.8
2014-May-23 03:33S 32°55' E 151°47'7 6.8
2014-May-23 02:33S 32°58' E 151°54'2211.3
2014-May-23 00:33S 32°51' E 152°20'1414.4
2014-May-22 23:33S 32°42' E 152°33'1514.9
2014-May-22 22:33S 32°30' E 152°43'1514.6
2014-May-22 21:33S 32°16' E 152°48'1513.8
2014-May-22 20:27S 32°01' E 152°54'23614.5
2014-May-22 04:11S 28°10' E 153°50'1015.7
2014-May-22 03:33S 28°00' E 153°50'1616.0
2014-May-22 02:33S 27°45' E 153°51'  
Track history (hours):
 
Tides and Currents Weather Stations Pressure Air Temp Water Temp Dewpoint Dewpoint Depression Visibility Wind Speed Wind Dir Waves Ship Positions

Haramachi Maru

Last reported at 2014-May-25 14:33 UTC. Time now 2014-Jul-28 12:25 UTC.
Position S 27°13' E 153°51'.
Warning: this ship's position is months out of date.

Length 239.8 m; beam 43 m.

Type: Cargo ship. MMSI: 431106000.

Date/timePositionNaut miles runAvg speedWind from/ knotsBaromVisibWave heightAir tempDewpointWater temp
2014-May-25 14:33S 27°13' E 153°51'10 9.9
2014-May-25 13:33S 27°23' E 153°51'1010.1
2014-May-25 12:33S 27°33' E 153°51'10 9.6
2014-May-25 11:34S 27°42' E 153°51'9 9.3
2014-May-25 10:33S 27°52' E 153°50'9 9.4
2014-May-25 09:33S 28°01' E 153°50'9 9.4
2014-May-25 08:34S 28°10' E 153°50'9 9.2
2014-May-25 07:34S 28°20' E 153°50'9 8.6
2014-May-25 06:33S 28°28' E 153°49'10 9.6
2014-May-25 05:33S 28°38' E 153°49'24310.9
2014-May-24 07:19S 32°33' E 152°39'810.7
2014-May-24 06:34S 32°40' E 152°34'1110.8
2014-May-24 05:33S 32°48' E 152°26'1111.0
2014-May-24 04:33S 32°54' E 152°15'1211.9
2014-May-24 03:34S 32°56' E 152°01'10 9.9
2014-May-24 02:33S 32°55' E 151°49'3 3.4
2014-May-24 01:33S 32°53' E 151°45'0 0.2
2014-May-24 00:18S 32°53' E 151°45'0 0.0
2014-May-23 23:30S 32°53' E 151°45'0 0.0
2014-May-23 22:24S 32°53' E 151°45'0 0.0
2014-May-23 20:30S 32°53' E 151°45'0 0.0
2014-May-23 19:18S 32°53' E 151°45'0 0.0
2014-May-23 18:30S 32°53' E 151°45'0 0.0
2014-May-23 17:30S 32°53' E 151°45'0 0.0
2014-May-23 16:30S 32°53' E 151°45'0 0.0
2014-May-23 15:30S 32°53' E 151°45'0 0.0
2014-May-23 14:30S 32°53' E 151°45'0 0.0
2014-May-23 13:30S 32°53' E 151°45'0 0.0
2014-May-23 12:30S 32°53' E 151°45'0 0.0
2014-May-23 11:30S 32°53' E 151°45'0 0.0
2014-May-23 10:30S 32°53' E 151°45'0 0.0
2014-May-23 09:33S 32°53' E 151°45'0 0.0
2014-May-23 08:33S 32°53' E 151°45'0 0.0
2014-May-23 07:33S 32°53' E 151°45'0 0.0
2014-May-23 06:30S 32°53' E 151°45'0 0.0
2014-May-23 05:30S 32°53' E 151°45'0 0.1
2014-May-23 04:33S 32°53' E 151°45'3 2.8
2014-May-23 03:33S 32°55' E 151°47'7 6.8
2014-May-23 02:33S 32°58' E 151°54'2211.3
2014-May-23 00:33S 32°51' E 152°20'1414.4
2014-May-22 23:33S 32°42' E 152°33'1514.9
2014-May-22 22:33S 32°30' E 152°43'1514.6
2014-May-22 21:33S 32°16' E 152°48'1513.8
2014-May-22 20:27S 32°01' E 152°54'23614.5
2014-May-22 04:11S 28°10' E 153°50'1015.7
2014-May-22 03:33S 28°00' E 153°50'1616.0
2014-May-22 02:33S 27°45' E 153°51'  

Dump ship's entire track history